Terminal Aerodrome Forecast
Issued by NWS

Home | Current Version | Previous Version | Text Only | Print | Product List | Glossary On
Versions: 1 2 3 4 5 6 7 8 9 10 11 12 13 14 15
000
FTUS46 KMTR 260521 AAA
TAFSTS
TAF AMD
KSTS 260521Z 2605/2624 19005KT P6SM OVC008
     FM260700 20003KT P6SM OVC004
     FM261100 00000KT 3SM BR OVC002
     FM261800 VRB04KT P6SM OVC006
     FM262000 19010KT P6SM SKC=

USA.gov is the U.S. government's official web portal to all federal, state and local government web resources and services.